Admire, Kansas
Current Conditions -  °F | °C
As of 3:53 AM on Thursday 27 Nov 2014 (Local Time) from KEMP Reporting Station
Clear Clear  
Wind Chill:   Ceiling: Unl
Heat Index: 19°   Visibility: 10mi
Dew Point: 17°   Wind: 8mph
Humidity: 92%   Direction: 30°NNE
Pressure: 30.44"   Gusts: NA
Location:  38.64°N, 96.1°W
Report Text: KEMP 270953Z AUTO 03007KT 10SM CLR M07/M08 A3044 RMK AO2 SLP326 T10721083
Loading
Personal Weather Stations






























Interactive Weather Map New forecast layout! Learn more

10-Day Weather Forecast

Advertisements
Track Severe Weather on mobile